createdAt,value
2023-01-22T00:02:07.534Z,-1.60
2023-01-22T00:04:42.910Z,-1.60
2023-01-22T00:07:23.761Z,-1.50
2023-01-22T00:09:58.687Z,-1.60
2023-01-22T00:12:37.224Z,-1.50
2023-01-22T00:15:13.730Z,-1.60
2023-01-22T00:17:57.765Z,-1.60
2023-01-22T00:20:41.528Z,-1.50
2023-01-22T00:23:11.238Z,-1.50
2023-01-22T00:25:46.557Z,-1.50
2023-01-22T00:28:19.890Z,-1.50
2023-01-22T00:31:10.552Z,-1.60
2023-01-22T00:33:38.876Z,-1.60
2023-01-22T00:36:14.340Z,-1.60
2023-01-22T00:38:44.064Z,-1.40
2023-01-22T00:41:13.708Z,-1.30
2023-01-22T00:43:43.682Z,-1.40
2023-01-22T00:46:15.154Z,-1.60
2023-01-22T00:48:45.367Z,-1.50
2023-01-22T00:51:18.630Z,-1.50
2023-01-22T00:53:47.308Z,-1.50
2023-01-22T00:56:19.448Z,-1.50
2023-01-22T00:58:49.847Z,-1.50
2023-01-22T01:01:20.882Z,-1.50
2023-01-22T01:03:47.944Z,-1.60
2023-01-22T01:06:23.724Z,-1.40
2023-01-22T01:08:53.770Z,-1.50
2023-01-22T01:11:24.143Z,-1.40
2023-01-22T01:14:00.025Z,-1.60
2023-01-22T01:16:30.066Z,-1.70
2023-01-22T01:18:59.788Z,-1.60
2023-01-22T01:21:27.765Z,-1.60
2023-01-22T01:24:02.478Z,-1.50
2023-01-22T01:26:32.665Z,-1.30
2023-01-22T01:29:02.866Z,-1.40
2023-01-22T01:31:35.731Z,-1.40
2023-01-22T01:34:07.395Z,-1.40
2023-01-22T01:36:54.046Z,-1.40
2023-01-22T01:42:59.631Z,-1.40
2023-01-22T01:45:45.443Z,-1.50
2023-01-22T01:48:52.274Z,-1.50
2023-01-22T01:51:45.006Z,-1.40
2023-01-22T01:54:31.036Z,-1.50
2023-01-22T01:57:31.650Z,-1.20
2023-01-22T02:00:23.912Z,-1.40
2023-01-22T02:03:04.018Z,-1.40
2023-01-22T02:05:53.842Z,-1.50
2023-01-22T02:08:58.555Z,-1.50
2023-01-22T02:11:49.480Z,-1.50
2023-01-22T02:14:47.902Z,-1.40
2023-01-22T02:17:51.375Z,-1.40
2023-01-22T02:23:27.438Z,-1.40
2023-01-22T02:26:21.212Z,-1.60
2023-01-22T02:29:02.127Z,-1.60
2023-01-22T02:31:43.375Z,-1.60
2023-01-22T02:34:32.341Z,-1.60
2023-01-22T02:37:14.219Z,-1.50
2023-01-22T02:39:49.507Z,-1.50
2023-01-22T02:45:42.880Z,-1.50
2023-01-22T02:48:19.843Z,-1.50
2023-01-22T02:51:17.924Z,-1.50
2023-01-22T02:54:15.164Z,-1.60
2023-01-22T02:56:59.723Z,-1.50
2023-01-22T02:59:36.660Z,-1.50
2023-01-22T03:05:55.144Z,-1.60
2023-01-22T03:08:38.560Z,-1.60
2023-01-22T03:11:18.751Z,-1.50
2023-01-22T03:14:17.232Z,-1.20
2023-01-22T03:17:17.948Z,-1.40
2023-01-22T03:20:18.227Z,-1.40
2023-01-22T03:23:15.486Z,-1.60
2023-01-22T03:26:20.749Z,-1.50
2023-01-22T03:28:53.610Z,-1.50
2023-01-22T03:31:45.966Z,-1.60
2023-01-22T03:34:49.183Z,-1.40
2023-01-22T03:40:17.935Z,-1.50
2023-01-22T03:43:02.724Z,-1.50
2023-01-22T03:45:45.955Z,-1.60
2023-01-22T03:48:23.102Z,-1.50
2023-01-22T03:51:31.929Z,-1.40
2023-01-22T03:54:21.668Z,-1.50
2023-01-22T03:57:23.549Z,-1.50
2023-01-22T04:00:32.968Z,-1.50
2023-01-22T04:03:12.094Z,-1.50
2023-01-22T04:06:02.373Z,-1.50
2023-01-22T04:08:41.548Z,-1.50
2023-01-22T04:11:24.490Z,-1.50
2023-01-22T04:14:08.940Z,-1.50
2023-01-22T04:16:49.937Z,-1.40
2023-01-22T04:20:03.909Z,-1.50
2023-01-22T04:23:04.971Z,-1.70
2023-01-22T04:25:57.569Z,-1.80
2023-01-22T04:28:48.115Z,-1.70
2023-01-22T04:31:34.408Z,-1.60
2023-01-22T04:34:17.064Z,-1.60
2023-01-22T04:37:09.502Z,-1.60
2023-01-22T04:40:19.337Z,-1.70
2023-01-22T04:43:00.219Z,-1.60
2023-01-22T04:45:51.701Z,-1.50
2023-01-22T04:48:38.871Z,-1.50
2023-01-22T04:51:30.118Z,-1.80
2023-01-22T04:54:26.163Z,-2.00
2023-01-22T04:57:07.856Z,-2.00
2023-01-22T04:59:52.631Z,-1.80
2023-01-22T05:02:44.227Z,-1.90
2023-01-22T05:05:24.203Z,-1.90
2023-01-22T05:08:11.007Z,-1.80
2023-01-22T05:10:51.657Z,-1.70
2023-01-22T05:13:39.542Z,-1.70
2023-01-22T05:16:24.170Z,-1.90
2023-01-22T05:19:27.782Z,-1.80
2023-01-22T05:22:22.305Z,-1.70
2023-01-22T05:27:48.801Z,-1.90
2023-01-22T05:30:39.074Z,-1.90
2023-01-22T05:34:00.238Z,-2.10
2023-01-22T05:36:45.757Z,-2.10
2023-01-22T05:39:36.232Z,-2.30
2023-01-22T05:42:26.674Z,-2.50
2023-01-22T05:45:14.044Z,-2.70
2023-01-22T05:51:18.314Z,-2.90
2023-01-22T05:54:18.315Z,-2.70
2023-01-22T05:57:05.176Z,-2.90
2023-01-22T05:59:57.753Z,-3.00
2023-01-22T06:05:29.326Z,-3.10
2023-01-22T06:11:27.949Z,-3.10
2023-01-22T06:14:08.515Z,-3.00
2023-01-22T06:17:09.983Z,-3.10
2023-01-22T06:20:10.726Z,-3.00
2023-01-22T06:22:47.493Z,-2.80
2023-01-22T06:25:32.065Z,-2.90
2023-01-22T06:28:14.665Z,-2.80
2023-01-22T06:31:00.694Z,-3.00
2023-01-22T06:34:08.406Z,-3.10
2023-01-22T06:36:59.466Z,-2.80
2023-01-22T06:39:41.604Z,-2.70
2023-01-22T06:45:32.063Z,-2.60
2023-01-22T06:51:09.546Z,-2.40
2023-01-22T06:54:01.221Z,-2.40
2023-01-22T07:00:18.905Z,-2.60
2023-01-22T07:03:08.689Z,-2.50
2023-01-22T07:06:19.737Z,-2.50
2023-01-22T07:09:04.793Z,-2.70
2023-01-22T07:12:02.025Z,-2.70
2023-01-22T07:17:36.693Z,-2.70
2023-01-22T07:20:48.483Z,-2.40
2023-01-22T07:23:31.584Z,-2.10
2023-01-22T07:26:17.734Z,-2.10
2023-01-22T07:29:37.191Z,-2.10
2023-01-22T07:32:19.787Z,-2.00
2023-01-22T07:35:44.807Z,-1.90
2023-01-22T07:38:36.648Z,-1.90
2023-01-22T07:41:24.542Z,-1.80
2023-01-22T07:44:28.897Z,-1.70
2023-01-22T07:47:29.270Z,-1.70
2023-01-22T07:50:56.387Z,-1.40
2023-01-22T07:53:48.851Z,-1.20
2023-01-22T07:59:46.788Z,-1.40
2023-01-22T08:02:32.111Z,-1.40
2023-01-22T08:05:45.970Z,-1.30
2023-01-22T08:08:57.642Z,-1.10
2023-01-22T08:11:56.549Z,-1.30
2023-01-22T08:14:42.526Z,-1.40
2023-01-22T08:17:21.666Z,-1.50
2023-01-22T08:20:00.097Z,-1.50
2023-01-22T08:22:42.651Z,-1.70
2023-01-22T08:25:39.372Z,-1.50
2023-01-22T08:28:47.846Z,-1.30
2023-01-22T08:31:29.997Z,-1.00
2023-01-22T08:34:41.853Z,-0.70
2023-01-22T08:37:33.438Z,-0.80
2023-01-22T08:40:24.129Z,-0.90
2023-01-22T08:43:04.936Z,-0.80
2023-01-22T08:45:48.704Z,-1.00
2023-01-22T08:48:28.524Z,-0.70
2023-01-22T08:51:10.363Z,-0.50
2023-01-22T08:54:18.451Z,-0.60
2023-01-22T08:57:09.301Z,-0.90
2023-01-22T09:00:36.583Z,-0.40
2023-01-22T09:03:45.630Z,-0.30
2023-01-22T09:06:44.246Z,-0.30
2023-01-22T09:09:41.266Z,-0.60
2023-01-22T09:15:32.700Z,-0.30
2023-01-22T09:18:19.484Z,-0.20
2023-01-22T09:21:20.050Z,0.00
2023-01-22T09:24:43.408Z,0.30
2023-01-22T09:27:36.563Z,0.30
2023-01-22T09:30:27.502Z,0.50
2023-01-22T09:33:23.122Z,0.70
2023-01-22T09:42:22.078Z,0.20
2023-01-22T09:51:43.702Z,-0.30
2023-01-22T09:54:35.970Z,-0.10
2023-01-22T09:57:31.936Z,-0.30
2023-01-22T10:00:30.642Z,-0.40
2023-01-22T10:03:34.380Z,-0.30
2023-01-22T10:06:24.472Z,0.00
2023-01-22T10:09:36.897Z,0.10
2023-01-22T10:12:21.097Z,0.30
2023-01-22T10:15:10.763Z,0.30
2023-01-22T10:18:07.455Z,0.60
2023-01-22T10:21:05.373Z,0.60
2023-01-22T10:23:47.661Z,0.40
2023-01-22T10:26:54.517Z,0.30
2023-01-22T10:29:42.522Z,0.20
2023-01-22T10:32:28.268Z,0.20
2023-01-22T10:35:09.085Z,0.60
2023-01-22T10:37:59.210Z,0.40
2023-01-22T10:41:02.291Z,0.60
2023-01-22T10:44:03.167Z,0.60
2023-01-22T10:47:29.982Z,0.80
2023-01-22T10:50:24.952Z,0.80
2023-01-22T10:52:57.194Z,0.70
2023-01-22T10:55:30.455Z,1.00
2023-01-22T10:58:04.149Z,1.20
2023-01-22T11:00:50.480Z,0.80
2023-01-22T11:03:22.408Z,1.60
2023-01-22T11:05:54.522Z,2.20
2023-01-22T11:08:26.636Z,2.00
2023-01-22T11:11:05.808Z,2.10
2023-01-22T11:13:56.636Z,1.90
2023-01-22T11:16:25.204Z,1.20
2023-01-22T11:18:59.078Z,1.00
2023-01-22T11:21:44.546Z,0.80
2023-01-22T11:24:23.259Z,0.90
2023-01-22T11:27:41.722Z,1.00
2023-01-22T11:31:13.018Z,1.10
2023-01-22T11:33:56.313Z,0.50
2023-01-22T11:36:31.129Z,0.30
2023-01-22T11:39:39.955Z,0.60
2023-01-22T11:42:52.886Z,0.60
2023-01-22T11:45:35.500Z,0.60
2023-01-22T11:49:16.469Z,0.50
2023-01-22T11:56:39.538Z,0.50
2023-01-22T11:59:54.947Z,0.40
2023-01-22T12:02:41.076Z,0.30
2023-01-22T12:05:14.649Z,0.00
2023-01-22T12:08:05.445Z,0.10
2023-01-22T12:11:07.476Z,0.70
2023-01-22T12:13:52.891Z,0.70
2023-01-22T12:16:41.141Z,0.50
2023-01-22T12:19:33.500Z,0.60
2023-01-22T12:22:33.535Z,0.90
2023-01-22T12:25:34.241Z,0.90
2023-01-22T12:28:25.769Z,1.10
2023-01-22T12:31:09.040Z,0.70
2023-01-22T12:33:46.884Z,0.90
2023-01-22T12:36:23.167Z,0.90
2023-01-22T12:39:54.725Z,0.90
2023-01-22T12:42:37.834Z,0.80
2023-01-22T12:45:30.286Z,0.50
2023-01-22T12:48:31.231Z,0.50
2023-01-22T12:50:59.534Z,0.40
2023-01-22T12:53:30.841Z,0.10
2023-01-22T12:56:10.502Z,0.10
2023-01-22T12:58:40.297Z,0.30
2023-01-22T13:01:22.616Z,0.30
2023-01-22T13:04:05.739Z,0.40
2023-01-22T13:06:39.059Z,0.40
2023-01-22T13:09:23.157Z,0.10
2023-01-22T13:11:50.218Z,-0.30
2023-01-22T13:14:22.550Z,-0.20
2023-01-22T13:16:56.346Z,-0.10
2023-01-22T13:19:47.808Z,-0.40
2023-01-22T13:22:19.871Z,-0.10
2023-01-22T13:24:52.002Z,-0.10
2023-01-22T13:27:37.257Z,-0.10
2023-01-22T13:30:16.818Z,-0.10
2023-01-22T13:39:37.915Z,-1.00
2023-01-22T13:42:05.974Z,-1.30
2023-01-22T13:44:36.003Z,-1.30
2023-01-22T13:47:03.656Z,-1.10
2023-01-22T13:49:32.862Z,-0.90
2023-01-22T13:52:07.361Z,-0.80
2023-01-22T13:54:42.977Z,-0.70
2023-01-22T13:57:15.113Z,-0.90
2023-01-22T13:59:56.524Z,-1.10
2023-01-22T14:02:44.185Z,-0.90
2023-01-22T14:05:23.405Z,-0.50
2023-01-22T14:07:51.148Z,-0.40
2023-01-22T14:10:24.097Z,-0.50
2023-01-22T14:13:01.850Z,-0.40
2023-01-22T14:15:28.674Z,-0.50
2023-01-22T14:18:11.277Z,-0.40
2023-01-22T14:20:42.289Z,-0.30
2023-01-22T14:23:09.041Z,-0.80
2023-01-22T14:25:40.855Z,-0.60
2023-01-22T14:28:08.041Z,-0.50
2023-01-22T14:30:34.872Z,-0.50
2023-01-22T14:33:02.089Z,-0.80
2023-01-22T14:35:31.142Z,-1.20
2023-01-22T14:37:57.932Z,-1.30
2023-01-22T14:40:26.170Z,-0.80
2023-01-22T14:42:53.117Z,-0.60
2023-01-22T14:45:22.803Z,-0.40
2023-01-22T14:47:51.854Z,-0.50
2023-01-22T14:50:19.675Z,-0.80
2023-01-22T14:52:47.139Z,-0.60
2023-01-22T14:55:14.385Z,-0.60
2023-01-22T14:57:41.150Z,-0.60
2023-01-22T15:00:08.940Z,-0.70
2023-01-22T15:02:40.680Z,-0.50
2023-01-22T15:05:29.818Z,-0.60
2023-01-22T15:07:57.167Z,-0.60
2023-01-22T15:10:24.319Z,-0.50
2023-01-22T15:12:53.110Z,-0.60
2023-01-22T15:15:25.375Z,-0.50
2023-01-22T15:17:57.546Z,-0.40
2023-01-22T15:20:25.205Z,-0.50
2023-01-22T15:22:53.889Z,-0.40
2023-01-22T15:25:21.063Z,-0.60
2023-01-22T15:27:48.317Z,-0.40
2023-01-22T15:30:18.331Z,-0.60
2023-01-22T15:32:46.191Z,-0.50
2023-01-22T15:35:13.334Z,-0.80
2023-01-22T15:37:40.379Z,-0.70
2023-01-22T15:40:09.903Z,-0.80
2023-01-22T15:42:37.130Z,-0.80
2023-01-22T15:45:05.722Z,-0.80
2023-01-22T15:47:32.972Z,-0.70
2023-01-22T15:50:00.217Z,-0.60
2023-01-22T15:52:28.088Z,-0.90
2023-01-22T15:54:55.543Z,-1.20
2023-01-22T15:57:23.246Z,-1.40
2023-01-22T15:59:52.645Z,-1.20
2023-01-22T16:02:20.221Z,-1.10
2023-01-22T16:04:47.740Z,-1.30
2023-01-22T16:07:14.782Z,-1.10
2023-01-22T16:09:41.931Z,-1.20
2023-01-22T16:12:09.802Z,-1.20
2023-01-22T16:14:37.050Z,-1.40
2023-01-22T16:17:04.911Z,-1.40
2023-01-22T16:19:32.164Z,-1.40
2023-01-22T16:21:59.315Z,-1.30
2023-01-22T16:24:26.895Z,-1.10
2023-01-22T16:26:54.127Z,-1.20
2023-01-22T16:29:21.281Z,-1.50
2023-01-22T16:31:48.364Z,-1.80
2023-01-22T16:34:18.650Z,-1.90
2023-01-22T16:36:45.836Z,-1.80
2023-01-22T16:39:23.538Z,-1.90
2023-01-22T16:41:51.886Z,-1.80
2023-01-22T16:44:27.505Z,-1.70
2023-01-22T16:46:57.748Z,-1.50
2023-01-22T16:49:28.894Z,-1.40
2023-01-22T16:52:00.294Z,-1.30
2023-01-22T16:54:35.378Z,-1.20
2023-01-22T16:57:05.498Z,-1.40
2023-01-22T16:59:34.098Z,-1.50
2023-01-22T17:02:02.776Z,-1.60
2023-01-22T17:04:30.247Z,-1.50
2023-01-22T17:06:59.034Z,-1.50
2023-01-22T17:09:28.312Z,-1.70
2023-01-22T17:11:58.029Z,-1.70
2023-01-22T17:14:27.433Z,-1.70
2023-01-22T17:16:54.795Z,-1.80
2023-01-22T17:19:22.347Z,-2.00
2023-01-22T17:21:55.326Z,-2.10
2023-01-22T17:24:22.822Z,-2.10
2023-01-22T17:26:51.804Z,-2.10
2023-01-22T17:29:19.747Z,-2.00
2023-01-22T17:31:47.335Z,-2.20
2023-01-22T17:34:14.881Z,-2.20
2023-01-22T17:36:42.648Z,-2.30
2023-01-22T17:39:15.822Z,-2.30
2023-01-22T17:41:43.706Z,-2.30
2023-01-22T17:44:10.941Z,-2.30
2023-01-22T17:46:38.311Z,-2.20
2023-01-22T17:49:05.963Z,-2.10
2023-01-22T17:51:35.058Z,-2.50
2023-01-22T17:54:03.850Z,-2.70
2023-01-22T17:56:33.967Z,-2.70
2023-01-22T17:59:03.574Z,-2.60
2023-01-22T18:01:32.634Z,-2.70
2023-01-22T18:04:01.991Z,-2.60
2023-01-22T18:06:29.744Z,-2.60
2023-01-22T18:08:57.192Z,-2.60
2023-01-22T18:11:29.664Z,-2.70
2023-01-22T18:13:58.454Z,-2.60
2023-01-22T18:16:28.276Z,-2.50
2023-01-22T18:18:57.282Z,-2.60
2023-01-22T18:21:25.245Z,-2.60
2023-01-22T18:23:52.614Z,-2.90
2023-01-22T18:26:23.093Z,-3.20
2023-01-22T18:28:51.391Z,-3.30
2023-01-22T18:31:22.430Z,-3.30
2023-01-22T18:33:49.910Z,-3.10
2023-01-22T18:36:20.008Z,-3.00
2023-01-22T18:38:48.194Z,-3.00
2023-01-22T18:41:23.652Z,-3.30
2023-01-22T18:43:56.303Z,-3.50
2023-01-22T18:46:25.830Z,-3.70
2023-01-22T18:48:55.831Z,-3.70
2023-01-22T18:51:23.755Z,-3.70
2023-01-22T18:53:54.018Z,-3.50
2023-01-22T18:56:22.113Z,-3.30
2023-01-22T18:58:49.255Z,-3.20
2023-01-22T19:01:23.413Z,-3.30
2023-01-22T19:03:56.931Z,-3.80
2023-01-22T19:06:34.664Z,-4.10
2023-01-22T19:09:05.871Z,-4.20
2023-01-22T19:11:36.866Z,-3.90
2023-01-22T19:14:06.980Z,-3.70
2023-01-22T19:16:35.441Z,-3.30
2023-01-22T19:19:07.810Z,-3.40
2023-01-22T19:21:34.868Z,-3.70
2023-01-22T19:24:02.625Z,-4.10
2023-01-22T19:26:35.633Z,-4.40
2023-01-22T19:29:09.427Z,-4.50
2023-01-22T19:31:42.524Z,-4.50
2023-01-22T19:34:12.328Z,-4.50
2023-01-22T19:36:39.570Z,-4.30
2023-01-22T19:39:12.476Z,-4.40
2023-01-22T19:41:41.043Z,-4.50
2023-01-22T19:44:10.144Z,-4.60
2023-01-22T19:46:40.013Z,-4.60
2023-01-22T19:49:09.485Z,-4.50
2023-01-22T19:51:36.916Z,-4.40
2023-01-22T19:54:08.453Z,-4.20
2023-01-22T19:56:37.671Z,-4.00
2023-01-22T19:59:25.108Z,-4.00
2023-01-22T20:01:55.866Z,-4.00
2023-01-22T20:04:26.385Z,-4.20
2023-01-22T20:06:59.647Z,-4.10
2023-01-22T20:09:30.517Z,-3.90
2023-01-22T20:12:00.211Z,-3.90
2023-01-22T20:14:32.994Z,-3.90
2023-01-22T20:17:01.477Z,-4.10
2023-01-22T20:19:38.551Z,-4.10
2023-01-22T20:22:12.861Z,-4.30
2023-01-22T20:24:41.585Z,-4.50
2023-01-22T20:27:12.209Z,-4.40
2023-01-22T20:29:40.935Z,-4.30
2023-01-22T20:32:08.355Z,-4.00
2023-01-22T20:34:35.609Z,-4.00
2023-01-22T20:37:03.033Z,-3.90
2023-01-22T20:39:30.408Z,-3.90
2023-01-22T20:41:57.541Z,-3.90
2023-01-22T20:44:25.000Z,-3.90
2023-01-22T20:46:52.145Z,-3.80
2023-01-22T20:49:19.291Z,-4.00
2023-01-22T20:51:49.004Z,-4.20
2023-01-22T20:54:16.065Z,-4.20
2023-01-22T20:56:43.206Z,-4.30
2023-01-22T20:59:12.397Z,-4.30
2023-01-22T21:01:40.288Z,-4.30
2023-01-22T21:04:08.343Z,-4.40
2023-01-22T21:06:37.244Z,-4.40
2023-01-22T21:09:05.614Z,-4.20
2023-01-22T21:11:34.189Z,-4.00
2023-01-22T21:14:04.581Z,-4.30
2023-01-22T21:16:35.054Z,-4.40
2023-01-22T21:19:05.665Z,-4.30
2023-01-22T21:21:34.183Z,-4.20
2023-01-22T21:24:02.122Z,-4.50
2023-01-22T21:26:32.460Z,-4.60
2023-01-22T21:29:05.475Z,-4.60
2023-01-22T21:31:36.367Z,-4.80
2023-01-22T21:34:05.628Z,-4.80
2023-01-22T21:36:38.918Z,-4.60
2023-01-22T21:39:10.017Z,-4.60
2023-01-22T21:41:38.987Z,-4.40
2023-01-22T21:44:25.450Z,-4.40
2023-01-22T21:46:52.654Z,-4.70
2023-01-22T21:49:24.552Z,-4.90
2023-01-22T21:51:54.134Z,-4.90
2023-01-22T21:54:25.371Z,-4.80
2023-01-22T21:56:53.152Z,-4.60
2023-01-22T21:59:20.697Z,-4.60
2023-01-22T22:01:50.988Z,-4.80
2023-01-22T22:04:19.414Z,-4.90
2023-01-22T22:06:46.787Z,-5.00
2023-01-22T22:09:17.408Z,-5.10
2023-01-22T22:11:44.997Z,-4.90
2023-01-22T22:14:12.699Z,-4.90
2023-01-22T22:16:39.797Z,-5.00
2023-01-22T22:19:15.809Z,-4.80
2023-01-22T22:21:42.642Z,-4.80
2023-01-22T22:24:10.503Z,-4.70
2023-01-22T22:26:40.663Z,-4.50
2023-01-22T22:29:08.670Z,-4.70
2023-01-22T22:31:36.445Z,-5.20
2023-01-22T22:34:04.401Z,-5.30
2023-01-22T22:36:32.787Z,-5.60
2023-01-22T22:39:03.687Z,-5.70
2023-01-22T22:41:33.888Z,-5.70
2023-01-22T22:44:01.583Z,-5.50
2023-01-22T22:46:35.127Z,-5.60
2023-01-22T22:49:03.700Z,-5.60
2023-01-22T22:51:36.269Z,-5.70
2023-01-22T22:54:11.846Z,-5.90
2023-01-22T22:56:42.203Z,-6.00
2023-01-22T22:59:09.832Z,-5.60
2023-01-22T23:01:37.897Z,-5.40
2023-01-22T23:04:06.765Z,-5.20
2023-01-22T23:06:36.100Z,-5.30
2023-01-22T23:09:11.726Z,-5.10
2023-01-22T23:11:39.288Z,-5.30
2023-01-22T23:14:07.598Z,-5.40
2023-01-22T23:16:37.868Z,-5.30
2023-01-22T23:19:08.524Z,-5.10
2023-01-22T23:21:36.322Z,-4.90
2023-01-22T23:24:04.015Z,-5.10
2023-01-22T23:26:31.002Z,-5.60
2023-01-22T23:29:01.947Z,-5.30
2023-01-22T23:31:31.095Z,-5.60
2023-01-22T23:33:58.888Z,-5.40
2023-01-22T23:36:26.206Z,-5.10
2023-01-22T23:38:53.445Z,-5.10
2023-01-22T23:41:21.013Z,-5.50
2023-01-22T23:43:48.066Z,-5.50
2023-01-22T23:46:17.852Z,-5.30
2023-01-22T23:48:44.951Z,-4.90
2023-01-22T23:51:14.176Z,-4.80
2023-01-22T23:53:43.716Z,-5.10
2023-01-22T23:56:12.026Z,-5.10
2023-01-22T23:58:39.134Z,-5.10
